Time;durP1;ratioP1;P1;durP2;ratioP2;P2;SDS_P1;SDS_P2;PMS_P1;PMS_P2;Temp;Humidity;BMP_temperature;BMP_pressure;BME280_temperature;BME280_humidity;BME280_pressure;Samples;Min_cycle;Max_cycle;Signal;HPM_P1;HPM_P2
2021/01/17 00:00:50;;;;;;;33.35;20.83;;;1.40;95.50;;;;;;4984703;28;20034;-42
2021/01/17 00:03:16;;;;;;;32.50;20.45;;;1.40;95.50;;;;;;4984337;28;20027;-41
2021/01/17 00:05:43;;;;;;;32.25;20.35;;;1.40;95.50;;;;;;4984338;28;20023;-41
2021/01/17 00:08:13;;;;;;;33.83;21.52;;;1.40;95.80;;;;;;4984869;28;20027;-41
2021/01/17 00:10:40;;;;;;;31.27;19.33;;;1.40;95.50;;;;;;4984624;28;20042;-42
2021/01/17 00:13:09;;;;;;;31.90;19.80;;;1.40;95.50;;;;;;4984849;28;20056;-41
2021/01/17 00:15:36;;;;;;;33.08;20.08;;;1.50;95.60;;;;;;4984379;28;20034;-41
2021/01/17 00:18:03;;;;;;;31.70;19.40;;;1.40;95.50;;;;;;4984368;28;20142;-42
2021/01/17 00:20:29;;;;;;;27.25;17.83;;;1.50;95.50;;;;;;4984430;28;20160;-41
2021/01/17 00:23:03;;;;;;;27.92;18.83;;;1.50;95.50;;;;;;4984643;28;20038;-41
2021/01/17 00:25:29;;;;;;;30.23;19.55;;;1.50;95.50;;;;;;4984517;28;20074;-41
2021/01/17 00:27:55;;;;;;;31.15;19.23;;;1.50;95.50;;;;;;4984244;28;20023;-41
2021/01/17 00:30:23;;;;;;;33.58;21.08;;;1.40;95.50;;;;;;4984392;28;20431;-42
2021/01/17 00:32:57;;;;;;;30.75;20.38;;;1.40;95.60;;;;;;4984102;28;20473;-41
2021/01/17 00:35:24;;;;;;;33.80;21.35;;;1.40;95.60;;;;;;4983952;28;20034;-42
2021/01/17 00:37:52;;;;;;;29.70;18.40;;;1.40;95.60;;;;;;4984093;28;20121;-42
2021/01/17 00:40:18;;;;;;;27.58;18.25;;;1.50;95.60;;;;;;4983476;28;20038;-42
2021/01/17 00:42:45;;;;;;;30.95;20.23;;;1.50;95.60;;;;;;4984463;28;20037;-43
2021/01/17 00:45:18;;;;;;;32.55;21.70;;;1.50;95.60;;;;;;4984150;28;20062;-41
2021/01/17 00:47:56;;;;;;;34.92;21.48;;;1.50;95.60;;;;;;4983697;28;20071;-42
2021/01/17 00:50:22;;;;;;;36.53;23.00;;;1.50;95.60;;;;;;4984173;28;20062;-40
2021/01/17 00:52:55;;;;;;;41.08;24.38;;;1.50;95.80;;;;;;4984071;28;20046;-42
2021/01/17 00:55:21;;;;;;;;;;;1.50;95.60;;;;;;4983817;28;20064;-41
2021/01/17 00:57:51;;;;;;;30.52;19.40;;;1.50;95.60;;;;;;4984630;28;20294;-42
2021/01/17 01:00:23;;;;;;;33.10;21.13;;;1.50;95.60;;;;;;4983593;28;20046;-41
2021/01/17 01:02:51;;;;;;;33.97;21.45;;;1.50;95.60;;;;;;4981462;28;20049;-41
2021/01/17 01:05:17;;;;;;;34.88;21.60;;;1.50;95.60;;;;;;4983846;28;20167;-41
2021/01/17 01:07:45;;;;;;;34.10;20.83;;;1.50;95.60;;;;;;4985070;28;20474;-41
2021/01/17 01:10:12;;;;;;;30.95;18.63;;;1.50;95.60;;;;;;4987561;28;20037;-41
2021/01/17 01:12:37;;;;;;;30.08;18.73;;;1.50;95.60;;;;;;4987872;28;20455;-41
2021/01/17 01:15:05;;;;;;;36.08;21.48;;;1.50;95.60;;;;;;4987299;28;20050;-42
2021/01/17 01:17:30;;;;;;;33.60;20.88;;;1.50;95.60;;;;;;4986611;28;20058;-42
2021/01/17 01:19:56;;;;;;;35.22;19.60;;;1.60;95.60;;;;;;4987441;28;20041;-44
2021/01/17 01:22:21;;;;;;;29.65;18.10;;;1.60;95.60;;;;;;4986474;28;20045;-40
2021/01/17 01:24:47;;;;;;;31.02;20.13;;;1.60;95.60;;;;;;4987325;28;20021;-42
2021/01/17 01:27:12;;;;;;;33.97;19.60;;;1.60;95.50;;;;;;4987460;28;20462;-42
2021/01/17 01:29:38;;;;;;;31.35;19.98;;;1.60;95.50;;;;;;4986902;28;20032;-42
2021/01/17 01:32:13;;;;;;;34.95;21.05;;;1.60;95.50;;;;;;4987607;28;20073;-42
2021/01/17 01:34:39;;;;;;;39.10;22.63;;;1.60;95.60;;;;;;4986926;28;20023;-41
2021/01/17 01:37:04;;;;;;;40.60;24.33;;;1.60;95.60;;;;;;4986499;28;20385;-41
2021/01/17 01:39:30;;;;;;;36.47;22.35;;;1.50;95.70;;;;;;4986549;28;20536;-42
2021/01/17 01:41:55;;;;;;;39.67;23.50;;;1.50;95.60;;;;;;4987351;28;20125;-42
2021/01/17 01:44:27;;;;;;;35.95;22.30;;;1.60;95.70;;;;;;4986026;28;20018;-42
2021/01/17 01:46:55;;;;;;;38.83;22.98;;;1.50;95.70;;;;;;4986679;28;20034;-42
2021/01/17 01:49:21;;;;;;;38.35;21.90;;;1.50;95.70;;;;;;4986156;28;20018;-41
2021/01/17 01:51:46;;;;;;;36.10;21.73;;;1.50;95.70;;;;;;4986399;28;20036;-42
2021/01/17 01:54:12;;;;;;;40.55;23.33;;;1.50;95.70;;;;;;4986743;28;20348;-42
2021/01/17 01:56:37;;;;;;;37.35;21.63;;;1.60;95.70;;;;;;4987235;28;20152;-43
2021/01/17 01:59:04;;;;;;;39.75;23.02;;;1.60;95.70;;;;;;4986229;28;20109;-40
2021/01/17 02:01:40;;;;;;;44.40;24.67;;;1.60;95.80;;;;;;4985974;28;20038;-41
2021/01/17 02:04:05;;;;;;;42.53;24.27;;;1.60;95.80;;;;;;4986226;28;20027;-41
2021/01/17 02:06:32;;;;;;;44.00;24.52;;;1.60;95.90;;;;;;4985256;28;20077;-40
2021/01/17 02:09:03;;;;;;;40.70;22.45;;;1.60;95.80;;;;;;4986804;28;20030;-42
2021/01/17 02:11:55;;;;;;;36.50;21.48;;;1.60;95.80;;;;;;4982156;28;20070;-41
2021/01/17 02:15:00;;;;;;;42.65;22.88;;;1.60;95.80;;;;;;4985956;28;20023;-41
2021/01/17 02:17:28;;;;;;;37.50;20.55;;;1.60;95.80;;;;;;4977519;28;20054;-41
2021/01/17 02:20:20;;;;;;;36.08;20.42;;;1.60;95.80;;;;;;4984834;28;20023;-41
2021/01/17 02:23:01;;;;;;;37.17;20.77;;;1.60;95.80;;;;;;4986088;28;20156;-42
2021/01/17 02:25:33;;;;;;;38.22;20.98;;;1.60;95.80;;;;;;4985934;28;20513;-42
2021/01/17 02:28:01;;;;;;;42.40;23.25;;;1.60;95.80;;;;;;4986738;28;20114;-42
2021/01/17 02:30:30;;;;;;;35.17;20.90;;;1.60;95.80;;;;;;4985704;28;20018;-42
2021/01/17 02:32:58;;;;;;;33.30;19.63;;;1.60;95.80;;;;;;4985307;28;20365;-42
2021/01/17 02:35:25;;;;;;;41.40;23.10;;;1.60;95.80;;;;;;4984958;28;20114;-42
2021/01/17 02:38:28;;;;;;;37.15;21.88;;;1.60;96.00;;;;;;4986433;28;20018;-41
2021/01/17 02:41:06;;;;;;;33.65;19.65;;;1.70;95.80;;;;;;4985685;28;20038;-41
2021/01/17 02:43:32;;;;;;;40.90;23.50;;;1.70;95.70;;;;;;4985739;28;20022;-41
2021/01/17 02:45:57;;;;;;;38.72;20.83;;;1.70;95.70;;;;;;4985514;28;20096;-41
2021/01/17 02:48:23;;;;;;;38.35;20.92;;;1.70;95.70;;;;;;4984602;28;20042;-42
2021/01/17 02:50:48;;;;;;;36.20;20.60;;;1.70;95.80;;;;;;4985302;28;20114;-43
2021/01/17 02:53:15;;;;;;;38.42;21.92;;;1.70;95.80;;;;;;4985507;28;20045;-41
2021/01/17 02:55:41;;;;;;;39.30;22.33;;;1.70;95.80;;;;;;4985553;28;20027;-41
2021/01/17 02:58:08;;;;;;;35.63;21.92;;;1.70;95.80;;;;;;4985722;28;20029;-41
2021/01/17 03:00:37;;;;;;;34.90;19.80;;;1.70;95.80;;;;;;4985160;28;20477;-41
2021/01/17 03:03:06;;;;;;;42.45;22.15;;;1.70;95.90;;;;;;4984698;28;20026;-40
2021/01/17 03:05:33;;;;;;;40.80;22.83;;;1.70;95.90;;;;;;4984755;28;20101;-41
2021/01/17 03:08:03;;;;;;;39.70;21.92;;;1.70;95.90;;;;;;4985280;28;20033;-42
2021/01/17 03:10:30;;;;;;;39.05;22.25;;;1.70;95.90;;;;;;4985334;28;20031;-41
2021/01/17 03:12:58;;;;;;;32.60;19.35;;;1.70;95.90;;;;;;4984940;28;20049;-41
2021/01/17 03:15:25;;;;;;;35.78;20.73;;;1.70;95.90;;;;;;4983890;28;20108;-43
2021/01/17 03:17:50;;;;;;;33.80;19.50;;;1.70;95.90;;;;;;4984398;28;20089;-42
2021/01/17 03:20:16;;;;;;;32.92;19.13;;;1.70;95.90;;;;;;4984317;28;20446;-42
2021/01/17 03:22:41;;;;;;;30.67;17.80;;;1.70;95.90;;;;;;4984593;28;20053;-43
2021/01/17 03:25:07;;;;;;;31.80;19.83;;;1.70;95.90;;;;;;4984829;28;20037;-41
2021/01/17 03:27:33;;;;;;;36.00;20.83;;;1.70;96.00;;;;;;4984552;28;20130;-41
2021/01/17 03:29:58;;;;;;;36.95;20.27;;;1.70;96.10;;;;;;4984827;28;20077;-40
2021/01/17 03:32:24;;;;;;;38.05;20.52;;;1.70;96.00;;;;;;4984006;28;20427;-40
2021/01/17 03:34:49;;;;;;;34.17;19.67;;;1.70;96.10;;;;;;4984876;28;20042;-42
2021/01/17 03:37:16;;;;;;;34.10;19.95;;;1.70;96.10;;;;;;4983615;28;20022;-42
2021/01/17 03:39:45;;;;;;;32.42;18.35;;;1.70;96.10;;;;;;4984901;28;20022;-38
2021/01/17 03:42:11;;;;;;;34.83;20.88;;;1.70;96.10;;;;;;4984853;28;20054;-41
2021/01/17 03:44:37;;;;;;;34.78;20.13;;;1.70;96.20;;;;;;4983967;28;20189;-41
2021/01/17 03:47:04;;;;;;;31.67;19.17;;;1.70;96.10;;;;;;4984620;28;20042;-41
2021/01/17 03:49:30;;;;;;;31.63;18.17;;;1.70;96.10;;;;;;4984106;28;20034;-41
2021/01/17 03:51:55;;;;;;;31.60;17.83;;;1.70;96.10;;;;;;4984053;28;20026;-41
2021/01/17 03:54:21;;;;;;;31.83;18.42;;;1.80;96.10;;;;;;4984028;28;20030;-42
2021/01/17 03:56:47;;;;;;;28.45;16.17;;;1.70;96.10;;;;;;4985040;28;20081;-41
2021/01/17 03:59:15;;;;;;;24.88;14.80;;;1.70;96.10;;;;;;4983790;28;20035;-40
2021/01/17 04:01:41;;;;;;;26.90;16.25;;;1.80;96.20;;;;;;4984327;28;20058;-41
2021/01/17 04:04:12;;;;;;;28.60;16.67;;;1.80;96.20;;;;;;4983537;28;20070;-41
2021/01/17 04:06:38;;;;;;;24.52;15.20;;;1.80;96.20;;;;;;4984088;28;20065;-43
2021/01/17 04:09:05;;;;;;;25.67;14.65;;;1.70;96.40;;;;;;4984433;28;20054;-40
2021/01/17 04:11:31;;;;;;;26.67;16.55;;;1.80;96.20;;;;;;4984138;28;20065;-42
2021/01/17 04:13:59;;;;;;;28.30;16.98;;;1.80;96.20;;;;;;4984306;28;20030;-41
2021/01/17 04:16:25;;;;;;;27.70;16.70;;;1.80;96.20;;;;;;4983669;28;20776;-41
2021/01/17 04:18:50;;;;;;;27.67;16.90;;;1.80;96.20;;;;;;4983483;28;20182;-41
2021/01/17 04:21:16;;;;;;;26.05;16.80;;;1.80;96.10;;;;;;4983902;28;20473;-43
2021/01/17 04:23:42;;;;;;;30.83;17.90;;;1.80;96.10;;;;;;4984392;28;20042;-41
2021/01/17 04:26:08;;;;;;;28.55;17.58;;;1.80;96.10;;;;;;4983728;28;20533;-41
2021/01/17 04:28:34;;;;;;;24.63;15.75;;;1.80;96.10;;;;;;4984763;28;20030;-41
2021/01/17 04:31:00;;;;;;;25.85;15.60;;;1.80;96.10;;;;;;4984026;28;20038;-41
2021/01/17 04:33:25;;;;;;;22.77;12.25;;;1.90;96.10;;;;;;4983131;28;20381;-40
2021/01/17 04:35:51;;;;;;;21.50;13.05;;;1.90;96.10;;;;;;4983996;28;20096;-41
2021/01/17 04:38:16;;;;;;;25.48;14.93;;;1.90;96.10;;;;;;4983511;28;20089;-40
2021/01/17 04:40:42;;;;;;;23.10;13.82;;;1.90;96.10;;;;;;4983650;28;20158;-40
2021/01/17 04:43:17;;;;;;;24.48;13.52;;;1.90;96.10;;;;;;4985466;28;20027;-39
2021/01/17 04:45:46;;;;;;;21.75;13.27;;;1.90;96.10;;;;;;4987717;28;20037;-40
2021/01/17 04:48:12;;;;;;;20.35;13.13;;;1.90;96.10;;;;;;4986839;28;20022;-40
2021/01/17 04:50:39;;;;;;;23.13;14.45;;;1.90;96.10;;;;;;4987196;28;20023;-41
2021/01/17 04:53:06;;;;;;;29.17;16.73;;;1.90;96.10;;;;;;4987810;28;20117;-41
2021/01/17 04:55:35;;;;;;;26.70;16.30;;;1.90;96.20;;;;;;4987445;28;20026;-41
2021/01/17 04:58:25;;;;;;;29.23;17.40;;;1.90;96.20;;;;;;4987491;28;20061;-41
2021/01/17 05:00:57;;;;;;;25.05;15.70;;;1.80;96.20;;;;;;4986964;28;20045;-40
2021/01/17 05:03:52;;;;;;;24.45;14.25;;;1.80;96.20;;;;;;4986603;28;20034;-41
2021/01/17 05:06:28;;;;;;;23.17;14.73;;;1.80;96.20;;;;;;4986606;28;20014;-41
2021/01/17 05:09:06;;;;;;;22.08;13.95;;;1.90;96.20;;;;;;4987235;28;20030;-41
2021/01/17 05:11:38;;;;;;;21.88;13.55;;;1.90;96.20;;;;;;4986882;28;20074;-42
2021/01/17 05:14:14;;;;;;;21.20;13.23;;;1.80;96.20;;;;;;4987733;28;20761;-41
2021/01/17 05:16:45;;;;;;;22.45;14.55;;;1.90;96.20;;;;;;4986249;28;20054;-40
2021/01/17 05:19:18;;;;;;;25.50;14.55;;;1.90;96.20;;;;;;4986979;28;20034;-43
2021/01/17 05:21:49;;;;;;;25.98;15.25;;;1.90;96.20;;;;;;4986815;28;20042;-41
2021/01/17 05:24:17;;;;;;;22.25;14.50;;;1.90;96.20;;;;;;4986949;28;20383;-42
2021/01/17 05:27:00;;;;;;;21.50;13.40;;;1.90;96.20;;;;;;4987163;28;20046;-41
2021/01/17 05:29:28;;;;;;;22.60;13.50;;;1.90;96.20;;;;;;4986929;28;20130;-41
2021/01/17 05:31:56;;;;;;;21.33;13.57;;;1.90;96.20;;;;;;4986739;28;20026;-40
2021/01/17 05:34:23;;;;;;;19.70;12.48;;;1.80;96.20;;;;;;4986265;28;20449;-41
2021/01/17 05:37:09;;;;;;;20.30;12.85;;;1.90;96.20;;;;;;4986554;28;20048;-41
2021/01/17 05:40:00;;;;;;;19.50;12.68;;;1.90;96.20;;;;;;4987062;28;20120;-41
2021/01/17 05:42:31;;;;;;;18.73;11.90;;;1.90;96.20;;;;;;4986466;28;20034;-41
2021/01/17 05:45:18;;;;;;;17.35;12.10;;;1.90;96.20;;;;;;4986882;28;20026;-41
2021/01/17 05:48:00;;;;;;;17.73;11.23;;;1.90;96.20;;;;;;4985928;28;20050;-43
2021/01/17 05:50:34;;;;;;;18.65;11.70;;;1.90;96.20;;;;;;4986074;28;20026;-41
2021/01/17 05:53:02;;;;;;;17.85;11.50;;;1.90;96.20;;;;;;4986587;28;20023;-41
2021/01/17 05:55:36;;;;;;;18.45;11.15;;;1.90;96.20;;;;;;4985279;28;20027;-42
2021/01/17 05:58:24;;;;;;;18.92;11.95;;;1.90;96.20;;;;;;4986009;28;20031;-42
2021/01/17 06:00:54;;;;;;;17.48;11.00;;;1.90;96.20;;;;;;4986309;28;20053;-41
2021/01/17 06:03:29;;;;;;;16.73;11.70;;;1.90;96.20;;;;;;4985504;28;20619;-41
2021/01/17 06:06:03;;;;;;;19.92;12.90;;;1.90;96.20;;;;;;4985912;28;20026;-41
2021/01/17 06:08:29;;;;;;;17.83;11.75;;;1.90;96.20;;;;;;4986416;28;20045;-41
2021/01/17 06:11:07;;;;;;;17.65;11.57;;;1.90;96.20;;;;;;4986248;28;20100;-42
2021/01/17 06:13:35;;;;;;;17.40;11.65;;;1.90;96.20;;;;;;4986248;28;20451;-42
2021/01/17 06:16:01;;;;;;;16.52;10.73;;;1.90;96.20;;;;;;4985883;28;20059;-42
2021/01/17 06:18:27;;;;;;;15.68;10.40;;;2.00;96.20;;;;;;4985243;28;20034;-41
2021/01/17 06:20:59;;;;;;;16.02;10.93;;;2.00;96.20;;;;;;4986110;28;20425;-42
2021/01/17 06:23:25;;;;;;;17.48;10.57;;;2.00;96.20;;;;;;4986278;28;20029;-41
2021/01/17 06:26:10;;;;;;;18.25;10.98;;;2.00;96.20;;;;;;4985668;28;20034;-42
2021/01/17 06:28:41;;;;;;;19.38;11.80;;;2.00;96.20;;;;;;4985871;28;20385;-42
2021/01/17 06:31:08;;;;;;;18.92;11.48;;;2.00;96.30;;;;;;4985596;28;20113;-43
2021/01/17 06:33:34;;;;;;;17.80;11.60;;;2.00;96.20;;;;;;4985350;28;20030;-42
2021/01/17 06:36:16;;;;;;;18.60;11.32;;;2.00;96.20;;;;;;4985966;28;20145;-42
2021/01/17 06:38:43;;;;;;;19.30;11.82;;;2.00;96.20;;;;;;4985870;28;20026;-41
2021/01/17 06:41:10;;;;;;;17.25;10.50;;;2.00;96.50;;;;;;4985472;28;20447;-42
2021/01/17 06:43:44;;;;;;;19.02;11.82;;;2.00;96.20;;;;;;4985444;28;20018;-41
2021/01/17 06:46:15;;;;;;;16.40;10.45;;;2.00;96.30;;;;;;4975625;28;20030;-42
2021/01/17 06:48:40;;;;;;;15.55;10.98;;;2.00;96.30;;;;;;4985994;28;20084;-42
2021/01/17 06:51:20;;;;;;;16.08;10.52;;;2.10;96.30;;;;;;4985323;28;20030;-42
2021/01/17 06:53:56;;;;;;;15.05;10.18;;;2.00;96.30;;;;;;4984727;28;20022;-42
2021/01/17 06:56:22;;;;;;;18.50;11.18;;;2.10;96.30;;;;;;4985046;28;20171;-42
2021/01/17 06:58:50;;;;;;;15.20;9.88;;;2.00;96.20;;;;;;4985880;28;20724;-41
2021/01/17 07:01:28;;;;;;;18.75;10.90;;;2.00;96.30;;;;;;4984381;28;20075;-42
2021/01/17 07:04:12;;;;;;;17.30;11.00;;;2.00;96.30;;;;;;4985203;28;20042;-42
2021/01/17 07:07:06;;;;;;;18.80;11.20;;;2.10;96.30;;;;;;4985465;28;20121;-42
2021/01/17 07:09:50;;;;;;;18.08;11.35;;;2.10;96.30;;;;;;4985217;28;20041;-42
2021/01/17 07:12:43;;;;;;;16.48;10.48;;;2.10;96.30;;;;;;4985262;28;20809;-44
2021/01/17 07:15:10;;;;;;;18.40;11.93;;;2.10;96.50;;;;;;4984498;28;20033;-42
2021/01/17 07:17:41;;;;;;;19.63;11.90;;;2.10;96.30;;;;;;4984596;28;20057;-41
2021/01/17 07:20:14;;;;;;;18.60;11.32;;;2.10;96.30;;;;;;4984807;28;20026;-42
2021/01/17 07:22:44;;;;;;;24.40;13.23;;;2.10;96.30;;;;;;4984941;28;20560;-42
2021/01/17 07:25:12;;;;;;;21.80;13.25;;;2.10;96.50;;;;;;4985008;28;20041;-42
2021/01/17 07:28:01;;;;;;;19.88;11.32;;;2.10;96.30;;;;;;4983471;28;20086;-41
2021/01/17 07:30:36;;;;;;;20.95;13.32;;;2.10;96.40;;;;;;4984705;28;20023;-43
2021/01/17 07:33:04;;;;;;;19.73;12.13;;;2.10;96.40;;;;;;4984395;28;20022;-43
2021/01/17 07:35:36;;;;;;;20.67;11.98;;;2.10;96.40;;;;;;4983352;28;20046;-42
2021/01/17 07:38:28;;;;;;;17.60;10.20;;;2.10;96.40;;;;;;4984590;28;20010;-41
2021/01/17 07:41:10;;;;;;;15.38;9.80;;;2.10;96.40;;;;;;4981469;28;20133;-43
2021/01/17 07:43:42;;;;;;;19.70;11.93;;;2.10;96.30;;;;;;4982375;28;20033;-43
2021/01/17 07:46:12;;;;;;;20.08;11.93;;;2.10;96.30;;;;;;4984688;28;20022;-41
2021/01/17 07:48:39;;;;;;;21.90;13.15;;;2.20;96.30;;;;;;4984898;28;20124;-39
2021/01/17 07:51:08;;;;;;;22.25;12.60;;;2.20;96.30;;;;;;4984203;28;20065;-42
2021/01/17 07:53:36;;;;;;;21.60;11.63;;;2.10;96.30;;;;;;4984418;28;20030;-41
2021/01/17 07:56:17;;;;;;;22.63;13.23;;;2.10;96.30;;;;;;4984488;28;20023;-42
2021/01/17 07:58:47;;;;;;;27.58;15.10;;;2.10;96.40;;;;;;4974864;28;20030;-42
2021/01/17 08:01:38;;;;;;;26.05;13.55;;;2.10;96.40;;;;;;4983059;28;20050;-42
2021/01/17 08:04:04;;;;;;;27.33;13.65;;;2.10;96.40;;;;;;4977245;28;20038;-42
2021/01/17 08:06:35;;;;;;;22.25;13.50;;;2.10;96.40;;;;;;4983076;28;20105;-42
2021/01/17 08:09:09;;;;;;;20.48;12.35;;;2.20;96.40;;;;;;4983371;28;20554;-42
2021/01/17 08:11:49;;;;;;;24.95;12.25;;;2.20;96.40;;;;;;4983150;28;20058;-42
2021/01/17 08:14:18;;;;;;;23.67;13.15;;;2.20;96.40;;;;;;4984013;28;20039;-42
2021/01/17 08:17:04;;;;;;;26.98;13.95;;;2.20;96.30;;;;;;4984725;28;20048;-41
2021/01/17 08:19:37;;;;;;;23.70;12.55;;;2.30;96.30;;;;;;4976316;28;20366;-42
2021/01/17 08:22:25;;;;;;;25.65;13.40;;;2.30;96.30;;;;;;4985058;28;20488;-41
2021/01/17 08:24:58;;;;;;;23.25;12.73;;;2.30;96.30;;;;;;4976968;28;20034;-42
2021/01/17 08:27:39;;;;;;;22.23;12.57;;;2.40;96.30;;;;;;4984690;28;20041;-44
2021/01/17 08:30:06;;;;;;;20.45;11.68;;;2.40;96.20;;;;;;4984797;28;20030;-43
2021/01/17 08:32:41;;;;;;;23.15;12.93;;;2.40;96.20;;;;;;4984852;28;20763;-43
2021/01/17 08:35:18;;;;;;;21.63;12.85;;;2.50;96.20;;;;;;4986327;28;20096;-49
2021/01/17 08:38:09;;;;;;;26.25;13.68;;;2.50;96.20;;;;;;4986060;28;20038;-42
2021/01/17 08:40:35;;;;;;;32.05;12.85;;;2.50;96.20;;;;;;4985662;28;20040;-41
2021/01/17 08:43:05;;;;;;;29.65;13.65;;;2.50;96.20;;;;;;4985720;28;20121;-41
2021/01/17 08:45:37;;;;;;;27.65;13.95;;;2.50;96.20;;;;;;4984957;28;20379;-41
2021/01/17 08:48:21;;;;;;;24.33;12.63;;;2.60;96.20;;;;;;4984984;28;20026;-41
2021/01/17 08:51:17;;;;;;;26.17;13.23;;;2.60;96.20;;;;;;4985906;28;20406;-40
2021/01/17 08:53:43;;;;;;;25.60;13.02;;;2.60;96.20;;;;;;4984183;28;20023;-41
2021/01/17 08:56:09;;;;;;;25.08;13.95;;;2.70;96.20;;;;;;4985065;28;20146;-42
2021/01/17 08:58:34;;;;;;;31.70;15.43;;;2.70;96.20;;;;;;4984839;28;20560;-42
2021/01/17 09:01:00;;;;;;;34.67;15.10;;;2.80;96.20;;;;;;4984861;28;20342;-41
2021/01/17 09:03:25;;;;;;;31.27;14.85;;;2.80;96.20;;;;;;4985576;28;20695;-40
2021/01/17 09:06:19;;;;;;;58.20;20.92;;;2.90;96.20;;;;;;4985828;28;20034;-42
2021/01/17 09:08:53;;;;;;;34.30;18.40;;;2.90;96.10;;;;;;4974406;28;20073;-42
2021/01/17 09:11:25;;;;;;;37.05;18.20;;;3.00;96.10;;;;;;4984518;28;20038;-39
2021/01/17 09:14:12;;;;;;;32.78;16.52;;;3.00;96.00;;;;;;4985487;28;20069;-41
2021/01/17 09:16:49;;;;;;;42.88;17.45;;;3.00;96.10;;;;;;4984961;28;20959;-42
2021/01/17 09:19:15;;;;;;;35.10;17.50;;;3.10;96.30;;;;;;4981815;28;20050;-43
2021/01/17 09:21:41;;;;;;;25.48;14.23;;;3.10;96.00;;;;;;4986886;28;20066;-40
2021/01/17 09:24:12;;;;;;;36.35;17.98;;;3.20;96.00;;;;;;4980176;28;20027;-41
2021/01/17 09:26:48;;;;;;;40.05;18.98;;;3.20;96.00;;;;;;4978734;28;20038;-43
2021/01/17 09:29:24;;;;;;;39.30;17.83;;;3.20;96.00;;;;;;4983230;28;20026;-42
2021/01/17 09:32:16;;;;;;;35.30;16.02;;;3.20;96.00;;;;;;4987668;28;20060;-41
2021/01/17 09:34:47;;;;;;;35.97;15.48;;;3.30;96.00;;;;;;4987431;28;20096;-41
2021/01/17 09:37:15;;;;;;;43.75;17.38;;;3.30;96.00;;;;;;4987051;28;20030;-41
2021/01/17 09:39:49;;;;;;;36.67;16.77;;;3.30;96.00;;;;;;4987347;28;20030;-41
2021/01/17 09:42:16;;;;;;;35.05;17.98;;;3.40;96.00;;;;;;4986021;28;20473;-41
2021/01/17 09:44:43;;;;;;;41.13;17.70;;;3.40;95.90;;;;;;4987051;28;20033;-42
2021/01/17 09:47:20;;;;;;;35.95;17.25;;;3.40;95.90;;;;;;4986306;28;20048;-41
2021/01/17 09:49:49;;;;;;;31.30;16.20;;;3.50;96.00;;;;;;4975208;28;20026;-40
2021/01/17 09:52:15;;;;;;;33.42;17.90;;;3.50;95.90;;;;;;4986335;28;20025;-43
2021/01/17 09:54:41;;;;;;;37.78;19.25;;;3.50;95.90;;;;;;4983069;28;20026;-40
2021/01/17 09:57:15;;;;;;;39.42;19.38;;;3.60;95.90;;;;;;4978294;28;20339;-41
2021/01/17 09:59:41;;;;;;;34.53;18.63;;;3.60;95.80;;;;;;4980753;28;20037;-39
2021/01/17 10:02:09;;;;;;;35.70;19.10;;;3.60;95.70;;;;;;4978950;28;20042;-43
2021/01/17 10:04:35;;;;;;;38.15;19.77;;;3.60;95.80;;;;;;4978097;28;20493;-41
2021/01/17 10:07:01;;;;;;;36.97;17.42;;;3.50;95.80;;;;;;4980320;28;20041;-40
2021/01/17 10:09:27;;;;;;;29.02;15.95;;;3.60;95.90;;;;;;4980941;28;20077;-40
2021/01/17 10:11:54;;;;;;;32.20;17.33;;;3.60;96.00;;;;;;4986143;28;20438;-42
2021/01/17 10:14:25;;;;;;;33.42;15.52;;;3.60;96.00;;;;;;4981012;28;20045;-41
2021/01/17 10:16:52;;;;;;;28.65;15.43;;;3.70;96.30;;;;;;4979342;28;20058;-42
2021/01/17 10:19:26;;;;;;;29.95;15.45;;;3.80;96.00;;;;;;4974950;28;20445;-41
2021/01/17 10:21:52;;;;;;;29.77;13.85;;;3.80;96.00;;;;;;4981087;28;20042;-44
2021/01/17 10:24:26;;;;;;;32.28;15.32;;;3.90;96.00;;;;;;4985998;28;20023;-42
2021/01/17 10:26:53;;;;;;;31.08;14.55;;;4.00;96.00;;;;;;4987091;28;20822;-41
2021/01/17 10:29:20;;;;;;;24.83;14.05;;;4.00;95.90;;;;;;4986368;28;20593;-41
2021/01/17 10:31:51;;;;;;;28.17;13.90;;;4.10;95.90;;;;;;4986617;28;20092;-42
2021/01/17 10:34:25;;;;;;;28.98;15.85;;;4.20;95.90;;;;;;4986263;28;20045;-42
2021/01/17 10:36:58;;;;;;;30.02;15.52;;;4.20;95.90;;;;;;4986705;28;20030;-42
2021/01/17 10:39:24;;;;;;;26.52;13.60;;;4.30;95.90;;;;;;4985866;28;20521;-42
2021/01/17 10:42:00;;;;;;;34.00;15.85;;;4.30;95.90;;;;;;4985756;28;20058;-42
2021/01/17 10:44:27;;;;;;;35.50;17.52;;;4.30;95.90;;;;;;4986443;28;20033;-43
2021/01/17 10:47:05;;;;;;;31.48;14.80;;;4.40;95.90;;;;;;4985956;28;20030;-40
2021/01/17 10:49:35;;;;;;;32.78;15.20;;;4.40;95.90;;;;;;4986504;28;20030;-39
2021/01/17 10:52:10;;;;;;;36.80;17.05;;;4.40;95.90;;;;;;4985921;28;20061;-42
2021/01/17 10:54:40;;;;;;;30.02;16.02;;;4.40;96.10;;;;;;4986265;28;20037;-42
2021/01/17 10:57:07;;;;;;;37.80;17.42;;;4.40;96.10;;;;;;4984751;28;20676;-42
2021/01/17 10:59:34;;;;;;;37.13;17.50;;;4.40;96.10;;;;;;4984894;28;20049;-47
2021/01/17 11:02:00;;;;;;;37.13;17.92;;;4.40;96.30;;;;;;4985298;28;20041;-42
2021/01/17 11:04:38;;;;;;;44.22;17.15;;;4.40;96.60;;;;;;4984816;28;20026;-42
2021/01/17 11:07:03;;;;;;;35.22;15.23;;;4.50;96.70;;;;;;4984983;28;20058;-41
2021/01/17 11:09:29;;;;;;;33.90;14.80;;;4.60;96.70;;;;;;4985300;28;20501;-43
2021/01/17 11:11:55;;;;;;;31.58;13.38;;;4.60;96.80;;;;;;4985479;28;20060;-41
2021/01/17 11:14:31;;;;;;;27.25;13.13;;;4.70;96.90;;;;;;4983319;28;20042;-42
2021/01/17 11:16:58;;;;;;;26.80;13.15;;;4.70;96.70;;;;;;4976202;28;20160;-42
2021/01/17 11:19:51;;;;;;;30.98;13.32;;;4.70;96.70;;;;;;4980156;28;20029;-43
2021/01/17 11:22:24;;;;;;;28.33;12.65;;;4.80;96.80;;;;;;4976616;28;20051;-41
2021/01/17 11:24:49;;;;;;;31.50;12.13;;;4.80;96.80;;;;;;4979708;28;20044;-41
2021/01/17 11:27:16;;;;;;;30.08;12.45;;;4.90;96.80;;;;;;4983632;28;20811;-42
2021/01/17 11:29:43;;;;;;;38.97;13.38;;;5.00;96.80;;;;;;4984277;28;20023;-42
2021/01/17 11:32:09;;;;;;;36.70;12.88;;;5.20;97.10;;;;;;4984866;28;20030;-41
2021/01/17 11:34:40;;;;;;;31.25;11.60;;;5.30;96.90;;;;;;4984257;28;20036;-42
2021/01/17 11:37:07;;;;;;;33.35;11.35;;;5.50;96.80;;;;;;4984135;28;20026;-41
2021/01/17 11:39:34;;;;;;;27.23;10.98;;;5.60;97.00;;;;;;4983102;28;20851;-43
2021/01/17 11:42:00;;;;;;;36.40;11.70;;;5.70;96.80;;;;;;4976257;28;20096;-43
2021/01/17 11:44:30;;;;;;;28.92;10.40;;;5.80;96.80;;;;;;4977997;28;20756;-40
2021/01/17 11:46:56;;;;;;;33.28;10.02;;;5.70;96.80;;;;;;4978219;28;20474;-42
2021/01/17 11:49:25;;;;;;;30.98;10.00;;;5.80;96.70;;;;;;4979498;28;20030;-43
2021/01/17 11:52:11;;;;;;;27.65;9.57;;;5.70;97.00;;;;;;4976814;28;20578;-44
2021/01/17 11:54:37;;;;;;;29.55;9.25;;;5.70;97.20;;;;;;4982629;28;20033;-42
2021/01/17 11:57:05;;;;;;;26.58;8.35;;;5.70;97.20;;;;;;4981061;28;20034;-42
2021/01/17 11:59:32;;;;;;;19.98;9.25;;;5.70;97.30;;;;;;4982358;28;20034;-43
2021/01/17 12:02:23;;;;;;;20.15;7.97;;;5.70;97.10;;;;;;4983060;28;20037;-41
2021/01/17 12:04:59;;;;;;;23.73;8.45;;;5.70;97.20;;;;;;4982115;28;20011;-43
2021/01/17 12:07:25;;;;;;;22.90;8.35;;;5.70;97.80;;;;;;4982780;28;20097;-41
2021/01/17 12:10:10;;;;;;;23.75;8.20;;;5.70;97.60;;;;;;4982892;28;20022;-42
2021/01/17 12:12:38;;;;;;;21.20;7.82;;;5.70;97.40;;;;;;4977851;28;20043;-42
2021/01/17 12:15:06;;;;;;;24.83;7.38;;;5.70;97.30;;;;;;4982802;28;20109;-41
2021/01/17 12:17:31;;;;;;;21.05;7.00;;;5.60;97.30;;;;;;4981524;28;20078;-45
2021/01/17 12:19:57;;;;;;;24.10;9.63;;;5.60;97.50;;;;;;4980931;28;20120;-41
2021/01/17 12:22:22;;;;;;;17.38;6.65;;;5.60;97.50;;;;;;4978959;28;20116;-43
2021/01/17 12:24:48;;;;;;;19.83;7.05;;;5.60;97.50;;;;;;4976608;28;20113;-45
2021/01/17 12:27:13;;;;;;;25.08;6.70;;;5.60;97.50;;;;;;4975334;28;20489;-42
2021/01/17 12:29:39;;;;;;;22.75;6.90;;;5.60;97.90;;;;;;4976503;28;20034;-42
2021/01/17 12:32:05;;;;;;;26.40;7.25;;;5.60;98.10;;;;;;4982284;28;20666;-41
2021/01/17 12:34:31;;;;;;;24.05;7.03;;;5.70;98.10;;;;;;4982627;28;20042;-43
2021/01/17 12:36:56;;;;;;;27.00;7.28;;;5.70;98.00;;;;;;4982878;28;20045;-42
2021/01/17 12:39:22;;;;;;;28.58;7.25;;;5.80;97.90;;;;;;4982490;28;20584;-42
2021/01/17 12:41:51;;;;;;;27.60;7.15;;;5.80;98.50;;;;;;4982625;28;20038;-42
2021/01/17 12:44:21;;;;;;;22.52;7.47;;;5.90;98.30;;;;;;4983721;28;20205;-44
2021/01/17 12:46:50;;;;;;;21.08;6.38;;;6.00;98.70;;;;;;4983426;28;20387;-43
2021/01/17 12:49:17;;;;;;;22.17;6.63;;;6.10;98.90;;;;;;4983749;28;20052;-42
2021/01/17 12:51:43;;;;;;;23.77;6.10;;;6.10;98.50;;;;;;4979300;28;20060;-44
2021/01/17 12:54:09;;;;;;;28.40;7.10;;;6.20;98.30;;;;;;4982046;28;20462;-42
2021/01/17 12:56:35;;;;;;;26.10;6.30;;;6.20;98.30;;;;;;4980715;28;20058;-42